createdAt,value
2019-02-20T00:00:46.497Z,6.31
2019-02-20T00:03:18.428Z,6.30
2019-02-20T00:05:50.145Z,6.32
2019-02-20T00:08:22.005Z,6.28
2019-02-20T00:10:54.021Z,6.25
2019-02-20T00:13:25.365Z,6.28
2019-02-20T00:15:57.245Z,6.28
2019-02-20T00:18:29.846Z,6.27
2019-02-20T00:21:01.578Z,6.27
2019-02-20T00:23:33.039Z,6.26
2019-02-20T00:26:04.893Z,6.24
2019-02-20T00:28:36.534Z,6.25
2019-02-20T00:31:07.963Z,6.27
2019-02-20T00:33:41.231Z,6.23
2019-02-20T00:36:12.720Z,6.25
2019-02-20T00:38:44.416Z,6.22
2019-02-20T00:41:15.736Z,6.22
2019-02-20T00:43:58.001Z,6.23
2019-02-20T00:46:35.188Z,6.21
2019-02-20T00:49:23.764Z,6.19
2019-02-20T00:52:20.882Z,6.20
2019-02-20T00:54:54.418Z,6.23
2019-02-20T00:57:26.684Z,6.23
2019-02-20T00:59:58.708Z,6.21
2019-02-20T01:02:30.393Z,6.18
2019-02-20T01:05:03.249Z,6.22
2019-02-20T01:07:34.865Z,6.23
2019-02-20T01:10:07.202Z,6.18
2019-02-20T01:12:38.925Z,6.15
2019-02-20T01:15:10.970Z,6.14
2019-02-20T01:17:42.315Z,6.19
2019-02-20T01:20:13.752Z,6.17
2019-02-20T01:22:45.547Z,6.15
2019-02-20T01:25:18.315Z,6.15
2019-02-20T01:27:51.620Z,6.17
2019-02-20T01:30:23.337Z,6.19
2019-02-20T01:32:55.278Z,6.16
2019-02-20T01:35:26.915Z,6.18
2019-02-20T01:37:58.424Z,6.12
2019-02-20T01:40:30.110Z,6.13
2019-02-20T01:43:01.756Z,6.15
2019-02-20T01:45:33.503Z,6.11
2019-02-20T01:48:04.822Z,6.13
2019-02-20T01:50:36.515Z,6.10
2019-02-20T01:53:10.315Z,6.05
2019-02-20T01:55:41.534Z,6.08
2019-02-20T01:58:12.871Z,6.08
2019-02-20T02:00:44.251Z,6.09
2019-02-20T02:03:15.612Z,6.06
2019-02-20T02:05:46.988Z,6.02
2019-02-20T02:08:18.699Z,6.05
2019-02-20T02:10:50.351Z,6.07
2019-02-20T02:13:22.981Z,6.03
2019-02-20T02:15:54.673Z,6.03
2019-02-20T02:18:29.537Z,6.03
2019-02-20T02:21:01.712Z,6.03
2019-02-20T02:23:33.089Z,6.01
2019-02-20T02:26:10.675Z,5.98
2019-02-20T02:28:37.769Z,5.97
2019-02-20T02:31:12.460Z,5.97
2019-02-20T02:33:43.917Z,5.98
2019-02-20T02:36:15.655Z,5.96
2019-02-20T02:38:47.067Z,5.98
2019-02-20T02:41:19.147Z,6.01
2019-02-20T02:43:50.871Z,6.01
2019-02-20T02:46:22.508Z,6.00
2019-02-20T02:48:53.853Z,6.02
2019-02-20T02:51:25.172Z,5.98
2019-02-20T02:53:56.604Z,5.94
2019-02-20T02:56:27.949Z,5.92
2019-02-20T02:58:59.344Z,5.91
2019-02-20T03:01:31.034Z,5.83
2019-02-20T03:04:02.654Z,5.79
2019-02-20T03:06:34.031Z,5.75
2019-02-20T03:09:06.333Z,5.70
2019-02-20T03:11:37.719Z,5.67
2019-02-20T03:14:09.124Z,5.65
2019-02-20T03:16:41.122Z,5.65
2019-02-20T03:19:12.457Z,5.60
2019-02-20T03:21:44.101Z,5.59
2019-02-20T03:24:15.916Z,5.57
2019-02-20T03:26:47.253Z,5.59
2019-02-20T03:29:19.052Z,5.66
2019-02-20T03:31:50.880Z,5.62
2019-02-20T03:34:22.623Z,5.63
2019-02-20T03:36:54.929Z,5.65
2019-02-20T03:39:26.665Z,5.63
2019-02-20T03:41:58.432Z,5.63
2019-02-20T03:44:30.805Z,5.68
2019-02-20T03:47:02.240Z,5.70
2019-02-20T03:49:33.753Z,5.66
2019-02-20T03:52:05.108Z,5.66
2019-02-20T03:54:36.809Z,5.64
2019-02-20T03:57:08.128Z,5.60
2019-02-20T03:59:40.708Z,5.59
2019-02-20T04:02:12.767Z,5.54
2019-02-20T04:04:44.420Z,5.51
2019-02-20T04:07:16.365Z,5.55
2019-02-20T04:09:48.269Z,5.51
2019-02-20T04:12:19.897Z,5.47
2019-02-20T04:14:51.236Z,5.49
2019-02-20T04:17:23.321Z,5.52
2019-02-20T04:19:54.635Z,5.54
2019-02-20T04:22:25.953Z,5.50
2019-02-20T04:24:57.969Z,5.49
2019-02-20T04:27:29.732Z,5.45
2019-02-20T04:30:01.096Z,5.49
2019-02-20T04:32:32.876Z,5.48
2019-02-20T04:35:04.546Z,5.49
2019-02-20T04:37:36.582Z,5.47
2019-02-20T04:40:08.158Z,5.44
2019-02-20T04:42:39.473Z,5.41
2019-02-20T04:45:11.325Z,5.40
2019-02-20T04:47:42.839Z,5.39
2019-02-20T04:50:14.464Z,5.37
2019-02-20T04:52:45.797Z,5.36
2019-02-20T04:55:17.266Z,5.33
2019-02-20T04:58:07.048Z,5.33
2019-02-20T05:00:38.485Z,5.33
2019-02-20T05:03:11.109Z,5.37
2019-02-20T05:05:42.550Z,5.31
2019-02-20T05:08:13.865Z,5.29
2019-02-20T05:10:45.534Z,5.30
2019-02-20T05:13:17.921Z,5.28
2019-02-20T05:15:49.248Z,5.25
2019-02-20T05:18:21.138Z,5.27
2019-02-20T05:20:52.579Z,5.30
2019-02-20T05:23:23.926Z,5.27
2019-02-20T05:25:55.642Z,5.27
2019-02-20T05:28:27.036Z,5.25
2019-02-20T05:30:58.418Z,5.27
2019-02-20T05:33:29.761Z,5.27
2019-02-20T05:36:01.887Z,5.24
2019-02-20T05:38:34.037Z,5.25
2019-02-20T05:41:05.741Z,5.22
2019-02-20T05:43:37.748Z,5.24
2019-02-20T05:46:09.361Z,5.22
2019-02-20T05:48:41.548Z,5.23
2019-02-20T05:51:12.934Z,5.23
2019-02-20T05:53:44.279Z,5.21
2019-02-20T05:56:15.904Z,5.21
2019-02-20T05:58:47.312Z,5.23
2019-02-20T06:01:18.754Z,5.19
2019-02-20T06:03:50.728Z,5.21
2019-02-20T06:06:22.128Z,5.20
2019-02-20T06:08:53.831Z,5.19
2019-02-20T06:11:26.004Z,5.20
2019-02-20T06:13:57.624Z,5.21
2019-02-20T06:16:29.001Z,5.21
2019-02-20T06:19:00.716Z,5.25
2019-02-20T06:21:32.272Z,5.22
2019-02-20T06:24:03.949Z,5.23
2019-02-20T06:26:35.353Z,5.23
2019-02-20T06:29:06.790Z,5.25
2019-02-20T06:31:38.627Z,5.24
2019-02-20T06:34:10.274Z,5.29
2019-02-20T06:36:41.655Z,5.26
2019-02-20T06:39:13.010Z,5.32
2019-02-20T06:41:44.643Z,5.30
2019-02-20T06:44:16.046Z,5.30
2019-02-20T06:46:47.377Z,5.33
2019-02-20T06:49:19.022Z,5.33
2019-02-20T06:51:50.899Z,5.35
2019-02-20T06:54:22.688Z,5.35
2019-02-20T06:56:55.038Z,5.36
2019-02-20T06:59:26.825Z,5.39
2019-02-20T07:01:58.542Z,5.42
2019-02-20T07:04:30.272Z,5.43
2019-02-20T07:07:28.198Z,5.44
2019-02-20T07:10:52.142Z,5.47
2019-02-20T07:13:42.786Z,5.52
2019-02-20T07:17:00.324Z,5.55
2019-02-20T07:19:56.595Z,5.56
2019-02-20T07:23:15.866Z,5.61
2019-02-20T07:26:44.588Z,5.61
2019-02-20T07:29:45.471Z,5.65
2019-02-20T07:32:18.720Z,5.67
2019-02-20T07:34:49.994Z,5.69
2019-02-20T07:37:22.197Z,5.70
2019-02-20T07:39:53.525Z,5.72
2019-02-20T07:42:25.061Z,5.77
2019-02-20T07:44:56.838Z,5.79
2019-02-20T07:47:28.914Z,5.82
2019-02-20T07:50:00.373Z,5.86
2019-02-20T07:52:31.967Z,5.89
2019-02-20T07:55:12.626Z,5.93
2019-02-20T07:57:38.184Z,5.99
2019-02-20T08:00:12.043Z,5.98
2019-02-20T08:02:43.502Z,6.04
2019-02-20T08:05:15.028Z,6.10
2019-02-20T08:07:46.340Z,6.14
2019-02-20T08:10:18.056Z,6.19
2019-02-20T08:12:49.376Z,6.25
2019-02-20T08:15:21.140Z,6.28
2019-02-20T08:17:52.500Z,6.26
2019-02-20T08:20:24.165Z,6.29
2019-02-20T08:22:55.859Z,6.36
2019-02-20T08:25:27.627Z,6.36
2019-02-20T08:27:59.179Z,6.44
2019-02-20T08:30:30.728Z,6.43
2019-02-20T08:33:02.448Z,6.51
2019-02-20T08:35:33.791Z,6.54
2019-02-20T08:38:05.115Z,6.62
2019-02-20T08:40:36.900Z,6.66
2019-02-20T08:43:08.959Z,6.66
2019-02-20T08:45:40.164Z,6.69
2019-02-20T08:48:12.117Z,6.72
2019-02-20T08:50:43.723Z,6.77
2019-02-20T08:53:15.707Z,6.87
2019-02-20T08:55:47.431Z,6.87
2019-02-20T08:58:18.845Z,6.92
2019-02-20T09:00:50.127Z,6.93
2019-02-20T09:03:21.506Z,7.01
2019-02-20T09:05:52.854Z,7.07
2019-02-20T09:08:24.139Z,7.21
2019-02-20T09:10:55.788Z,7.28
2019-02-20T09:13:27.471Z,7.21
2019-02-20T09:16:01.082Z,7.39
2019-02-20T09:18:35.767Z,7.40
2019-02-20T09:21:07.308Z,7.52
2019-02-20T09:23:39.190Z,7.41
2019-02-20T09:26:11.232Z,7.53
2019-02-20T09:28:43.365Z,7.55
2019-02-20T09:31:15.301Z,7.69
2019-02-20T09:33:46.785Z,7.76
2019-02-20T09:36:18.728Z,7.76
2019-02-20T09:38:51.106Z,7.66
2019-02-20T09:41:23.614Z,7.76
2019-02-20T09:43:55.517Z,7.88
2019-02-20T09:46:26.799Z,7.82
2019-02-20T09:48:59.107Z,7.98
2019-02-20T09:51:30.423Z,8.11
2019-02-20T09:54:02.052Z,8.18
2019-02-20T09:56:33.859Z,8.26
2019-02-20T09:59:05.192Z,8.38
2019-02-20T10:01:36.519Z,8.39
2019-02-20T10:04:08.339Z,8.58
2019-02-20T10:06:39.616Z,8.50
2019-02-20T10:09:11.259Z,8.57
2019-02-20T10:11:43.001Z,8.60
2019-02-20T10:14:14.617Z,8.76
2019-02-20T10:16:45.925Z,9.00
2019-02-20T10:19:17.906Z,9.13
2019-02-20T10:21:49.599Z,9.16
2019-02-20T10:24:21.566Z,9.31
2019-02-20T10:27:00.463Z,9.33
2019-02-20T10:29:26.299Z,9.58
2019-02-20T10:31:58.109Z,9.75
2019-02-20T10:34:29.623Z,10.10
2019-02-20T10:37:00.965Z,10.07
2019-02-20T10:39:32.533Z,10.28
2019-02-20T10:42:04.572Z,10.45
2019-02-20T10:44:36.502Z,10.08
2019-02-20T10:47:07.793Z,10.23
2019-02-20T10:49:39.175Z,10.25
2019-02-20T10:52:10.794Z,10.41
2019-02-20T10:54:42.413Z,10.62
2019-02-20T10:57:13.746Z,10.81
2019-02-20T10:59:45.317Z,10.81
2019-02-20T11:02:17.646Z,10.93
2019-02-20T11:04:50.182Z,10.63
2019-02-20T11:07:21.838Z,10.81
2019-02-20T11:09:53.436Z,10.88
2019-02-20T11:12:25.981Z,11.05
2019-02-20T11:14:57.727Z,11.05
2019-02-20T11:17:30.365Z,11.29
2019-02-20T11:20:02.244Z,11.37
2019-02-20T11:22:34.262Z,11.35
2019-02-20T11:25:06.640Z,11.18
2019-02-20T11:27:39.565Z,11.81
2019-02-20T11:30:15.840Z,11.69
2019-02-20T11:32:47.558Z,11.86
2019-02-20T11:35:19.648Z,11.74
2019-02-20T11:37:50.931Z,11.66
2019-02-20T11:40:22.623Z,12.09
2019-02-20T11:42:54.280Z,11.61
2019-02-20T11:45:25.999Z,11.83
2019-02-20T11:47:57.604Z,12.14
2019-02-20T11:50:29.565Z,11.90
2019-02-20T11:53:01.204Z,11.95
2019-02-20T11:55:32.586Z,11.91
2019-02-20T11:58:04.080Z,11.79
2019-02-20T12:00:36.574Z,12.03
2019-02-20T12:03:08.390Z,12.61
2019-02-20T12:05:40.018Z,12.25
2019-02-20T12:08:11.310Z,12.15
2019-02-20T12:10:43.395Z,12.43
2019-02-20T12:13:14.969Z,12.21
2019-02-20T12:15:46.304Z,12.16
2019-02-20T12:18:18.235Z,11.60
2019-02-20T12:20:49.579Z,11.41
2019-02-20T12:23:21.365Z,12.07
2019-02-20T12:25:54.349Z,12.06
2019-02-20T12:28:28.187Z,12.06
2019-02-20T12:31:00.557Z,12.28
2019-02-20T12:33:31.910Z,12.04
2019-02-20T12:36:04.326Z,12.11
2019-02-20T12:38:37.225Z,11.70
2019-02-20T12:41:08.695Z,11.88
2019-02-20T12:43:40.038Z,12.48
2019-02-20T12:46:11.320Z,12.19
2019-02-20T12:48:43.276Z,12.56
2019-02-20T12:51:15.397Z,12.46
2019-02-20T12:53:46.724Z,12.58
2019-02-20T12:56:18.361Z,12.13
2019-02-20T12:58:49.833Z,12.17
2019-02-20T13:01:21.601Z,12.07
2019-02-20T13:03:52.975Z,11.72
2019-02-20T13:06:24.306Z,11.79
2019-02-20T13:08:56.607Z,12.02
2019-02-20T13:11:27.876Z,12.19
2019-02-20T13:13:59.171Z,11.58
2019-02-20T13:16:30.483Z,11.85
2019-02-20T13:19:02.104Z,11.78
2019-02-20T13:21:33.844Z,11.72
2019-02-20T13:24:05.232Z,11.80
2019-02-20T13:26:36.799Z,11.64
2019-02-20T13:29:08.524Z,11.39
2019-02-20T13:31:39.837Z,11.28
2019-02-20T13:34:11.709Z,11.46
2019-02-20T13:36:43.001Z,11.61
2019-02-20T13:39:14.562Z,11.65
2019-02-20T13:41:46.805Z,11.68
2019-02-20T13:44:19.198Z,11.69
2019-02-20T13:46:50.502Z,11.59
2019-02-20T13:49:22.462Z,11.78
2019-02-20T13:51:54.091Z,11.67
2019-02-20T13:54:25.787Z,11.78
2019-02-20T13:57:01.860Z,11.97
2019-02-20T13:59:30.503Z,11.75
2019-02-20T14:02:01.895Z,11.55
2019-02-20T14:04:33.500Z,11.53
2019-02-20T14:07:04.873Z,11.26
2019-02-20T14:09:36.181Z,10.97
2019-02-20T14:12:07.483Z,11.21
2019-02-20T14:14:39.405Z,11.21
2019-02-20T14:17:10.753Z,11.25
2019-02-20T14:19:42.351Z,11.29
2019-02-20T14:22:13.691Z,11.10
2019-02-20T14:24:46.061Z,11.02
2019-02-20T14:27:17.824Z,10.91
2019-02-20T14:29:49.167Z,11.03
2019-02-20T14:32:20.807Z,11.07
2019-02-20T14:34:52.407Z,11.13
2019-02-20T14:37:23.762Z,10.97
2019-02-20T14:39:55.028Z,10.72
2019-02-20T14:42:26.620Z,10.72
2019-02-20T14:44:58.049Z,10.67
2019-02-20T14:47:29.428Z,10.85
2019-02-20T14:50:01.010Z,10.81
2019-02-20T14:52:32.380Z,10.79
2019-02-20T14:55:04.099Z,10.59
2019-02-20T14:57:35.970Z,10.61
2019-02-20T15:00:08.327Z,10.63
2019-02-20T15:02:39.703Z,10.60
2019-02-20T15:05:12.152Z,10.56
2019-02-20T15:07:44.151Z,10.63
2019-02-20T15:10:15.543Z,10.52
2019-02-20T15:12:46.895Z,10.54
2019-02-20T15:15:19.236Z,10.54
2019-02-20T15:17:50.812Z,10.61
2019-02-20T15:20:22.741Z,10.45
2019-02-20T15:22:54.394Z,10.46
2019-02-20T15:25:26.849Z,10.38
2019-02-20T15:27:58.164Z,10.35
2019-02-20T15:30:29.497Z,10.23
2019-02-20T15:33:01.374Z,10.11
2019-02-20T15:35:32.733Z,10.11
2019-02-20T15:38:05.200Z,10.11
2019-02-20T15:40:36.505Z,10.10
2019-02-20T15:43:08.375Z,10.06
2019-02-20T15:45:40.003Z,10.05
2019-02-20T15:48:11.368Z,9.91
2019-02-20T15:50:42.680Z,9.93
2019-02-20T15:53:14.189Z,9.85
2019-02-20T15:55:45.566Z,9.88
2019-02-20T15:58:17.237Z,9.92
2019-02-20T16:00:48.604Z,9.87
2019-02-20T16:03:19.933Z,9.87
2019-02-20T16:05:51.227Z,9.77
2019-02-20T16:08:23.454Z,9.75
2019-02-20T16:10:55.318Z,9.70
2019-02-20T16:19:39.852Z,9.56
2019-02-20T16:22:11.117Z,9.51
2019-02-20T16:24:42.670Z,9.43
2019-02-20T16:27:15.397Z,9.41
2019-02-20T16:29:47.038Z,9.32
2019-02-20T16:32:18.626Z,9.29
2019-02-20T16:34:49.958Z,9.31
2019-02-20T16:37:21.771Z,9.22
2019-02-20T16:39:53.814Z,9.25
2019-02-20T16:42:25.878Z,9.15
2019-02-20T16:44:57.785Z,9.19
2019-02-20T16:47:29.892Z,9.12
2019-02-20T16:50:01.503Z,9.10
2019-02-20T16:52:33.328Z,9.10
2019-02-20T16:55:05.014Z,9.07
2019-02-20T16:57:36.435Z,8.91
2019-02-20T17:00:08.342Z,8.91
2019-02-20T17:02:39.640Z,8.90
2019-02-20T17:05:14.222Z,8.90
2019-02-20T17:07:45.211Z,8.85
2019-02-20T17:10:17.107Z,8.81
2019-02-20T17:12:50.383Z,8.74
2019-02-20T17:15:21.893Z,8.70
2019-02-20T17:17:53.425Z,8.68
2019-02-20T17:20:24.722Z,8.69
2019-02-20T17:22:56.456Z,8.63
2019-02-20T17:25:28.757Z,8.62
2019-02-20T17:28:05.813Z,8.56
2019-02-20T17:30:32.988Z,8.55
2019-02-20T17:33:04.254Z,8.53
2019-02-20T17:35:35.645Z,8.49
2019-02-20T17:38:06.997Z,8.50
2019-02-20T17:40:38.262Z,8.46
2019-02-20T17:43:09.990Z,8.44
2019-02-20T17:45:41.548Z,8.41
2019-02-20T17:48:12.843Z,8.39
2019-02-20T17:50:44.187Z,8.37
2019-02-20T17:53:15.448Z,8.33
2019-02-20T17:55:46.996Z,8.29
2019-02-20T17:58:18.656Z,8.25
2019-02-20T18:00:50.240Z,8.24
2019-02-20T18:03:21.789Z,8.20
2019-02-20T18:05:53.100Z,8.18
2019-02-20T18:08:24.800Z,8.16
2019-02-20T18:10:56.081Z,8.15
2019-02-20T18:13:27.410Z,8.14
2019-02-20T18:15:59.019Z,8.12
2019-02-20T18:18:31.442Z,8.08
2019-02-20T18:21:02.783Z,8.08
2019-02-20T18:23:34.516Z,8.07
2019-02-20T18:26:05.918Z,8.06
2019-02-20T18:28:37.882Z,8.03
2019-02-20T18:31:10.656Z,8.03
2019-02-20T18:33:42.734Z,8.01
2019-02-20T18:36:14.337Z,8.01
2019-02-20T18:38:45.930Z,8.02
2019-02-20T18:41:17.609Z,8.00
2019-02-20T18:43:49.377Z,7.96
2019-02-20T18:46:21.081Z,7.97
2019-02-20T18:48:52.756Z,7.94
2019-02-20T18:51:24.121Z,7.93
2019-02-20T18:53:55.712Z,7.93
2019-02-20T18:56:26.939Z,7.91
2019-02-20T18:58:58.763Z,7.90
2019-02-20T19:01:30.338Z,7.91
2019-02-20T19:04:02.325Z,7.90
2019-02-20T19:06:33.744Z,7.89
2019-02-20T19:09:20.162Z,7.88
2019-02-20T19:13:11.425Z,7.83
2019-02-20T19:16:18.779Z,7.82
2019-02-20T19:19:32.366Z,7.79
2019-02-20T19:22:42.122Z,7.76
2019-02-20T19:26:23.638Z,7.78
2019-02-20T19:30:03.977Z,7.76
2019-02-20T19:33:56.670Z,7.75
2019-02-20T19:37:24.190Z,7.70
2019-02-20T19:40:53.813Z,7.72
2019-02-20T19:44:36.594Z,7.69
2019-02-20T19:48:16.074Z,7.72
2019-02-20T19:51:10.335Z,7.71
2019-02-20T19:54:28.940Z,7.70
2019-02-20T19:57:56.149Z,7.68
2019-02-20T20:01:02.627Z,7.68
2019-02-20T20:04:04.019Z,7.67
2019-02-20T20:07:39.625Z,7.65
2019-02-20T20:10:49.931Z,7.66
2019-02-20T20:13:52.628Z,7.68
2019-02-20T20:17:14.408Z,7.65
2019-02-20T20:21:08.926Z,7.65
2019-02-20T20:24:51.688Z,7.65
2019-02-20T20:28:12.340Z,7.65
2019-02-20T20:31:18.863Z,7.62
2019-02-20T20:34:45.480Z,7.60
2019-02-20T20:38:24.742Z,7.59
2019-02-20T20:41:58.118Z,7.57
2019-02-20T20:45:15.387Z,7.57
2019-02-20T20:48:56.553Z,7.56
2019-02-20T20:52:38.928Z,7.54
2019-02-20T20:56:01.356Z,7.49
2019-02-20T20:59:26.386Z,7.49
2019-02-20T21:02:43.346Z,7.48
2019-02-20T21:06:35.324Z,7.45
2019-02-20T21:09:40.042Z,7.41
2019-02-20T21:13:01.719Z,7.38
2019-02-20T21:16:17.578Z,7.37
2019-02-20T21:20:07.079Z,7.36
2019-02-20T21:23:22.154Z,7.35
2019-02-20T21:26:34.691Z,7.33
2019-02-20T21:29:55.257Z,7.33
2019-02-20T21:33:19.970Z,7.28
2019-02-20T21:36:26.237Z,7.27
2019-02-20T21:39:50.389Z,7.25
2019-02-20T21:43:31.801Z,7.22
2019-02-20T21:46:37.167Z,7.21
2019-02-20T21:49:44.225Z,7.19
2019-02-20T21:53:29.696Z,7.14
2019-02-20T21:56:58.622Z,7.15
2019-02-20T22:00:20.931Z,7.17
2019-02-20T22:04:04.128Z,7.15
2019-02-20T22:07:09.966Z,7.14
2019-02-20T22:10:27.872Z,7.16
2019-02-20T22:14:01.537Z,7.16
2019-02-20T22:17:35.376Z,7.17
2019-02-20T22:21:27.946Z,7.21
2019-02-20T22:25:09.362Z,7.19
2019-02-20T22:28:48.316Z,7.20
2019-02-20T22:32:13.452Z,7.20
2019-02-20T22:35:30.566Z,7.22
2019-02-20T22:39:31.886Z,7.18
2019-02-20T22:42:42.974Z,7.20
2019-02-20T22:46:05.796Z,7.11
2019-02-20T22:49:20.564Z,7.07
2019-02-20T22:52:23.626Z,7.05
2019-02-20T22:56:00.434Z,7.02
2019-02-20T22:59:29.733Z,6.95
2019-02-20T23:02:47.545Z,6.96
2019-02-20T23:06:46.092Z,6.94
2019-02-20T23:09:54.948Z,6.97
2019-02-20T23:13:25.962Z,6.99
2019-02-20T23:15:57.576Z,6.99
2019-02-20T23:18:30.064Z,6.94
2019-02-20T23:21:01.394Z,6.95
2019-02-20T23:23:33.008Z,6.96
2019-02-20T23:26:04.887Z,6.97
2019-02-20T23:28:36.194Z,6.96
2019-02-20T23:31:07.774Z,6.98
2019-02-20T23:33:39.399Z,6.98
2019-02-20T23:36:10.699Z,7.01
2019-02-20T23:38:42.586Z,6.98
2019-02-20T23:41:14.226Z,6.96
2019-02-20T23:43:45.988Z,6.95
2019-02-20T23:46:17.272Z,6.96
2019-02-20T23:48:48.550Z,6.94
2019-02-20T23:51:20.230Z,6.92
2019-02-20T23:53:53.062Z,6.90
2019-02-20T23:56:24.270Z,6.89
2019-02-20T23:58:55.571Z,6.84
